Helenville, Wisconsin
Current Conditions -  °F | °C
As of 10:15 AM on Thursday 29 Jan 2015 (Local Time) from KRYV Reporting Station
Overcast Overcast  
Wind Chill: 21°   Ceiling: 1500
Heat Index: 32°   Visibility: 10mi
Dew Point: 27°   Wind: 15mph
Humidity: 84%   Direction: 330°NNW
Pressure: 29.92"   Gusts: 22mph
Location:  43.01°N, 88.7°W
Report Text: KRYV 291615Z AUTO 33013G19KT 10SM OVC015 00/M03 A2992 RMK AO2 T10021026
Loading
Personal Weather Stations






























Interactive Weather Map New forecast layout! Learn more

10-Day Weather Forecast

Advertisements
Track Severe Weather on mobile